sensor_id;sensor_type;location;lat;lon;timestamp;P1;durP1;ratioP1;P2;durP2;ratioP2
3704;SDS011;1868;48.918;9.438;2022-09-01T00:00:43;7.70;;;7.00;;
3704;SDS011;1868;48.918;9.438;2022-09-01T00:03:14;10.07;;;9.07;;
3704;SDS011;1868;48.918;9.438;2022-09-01T00:05:43;11.03;;;9.03;;
3704;SDS011;1868;48.918;9.438;2022-09-01T00:08:16;9.70;;;8.70;;
3704;SDS011;1868;48.918;9.438;2022-09-01T00:10:44;8.57;;;7.77;;
3704;SDS011;1868;48.918;9.438;2022-09-01T00:13:14;9.77;;;7.57;;
3704;SDS011;1868;48.918;9.438;2022-09-01T00:15:43;14.20;;;8.27;;
3704;SDS011;1868;48.918;9.438;2022-09-01T00:18:11;9.73;;;7.27;;
3704;SDS011;1868;48.918;9.438;2022-09-01T00:20:41;9.13;;;7.37;;
3704;SDS011;1868;48.918;9.438;2022-09-01T00:23:09;8.80;;;7.40;;
3704;SDS011;1868;48.918;9.438;2022-09-01T00:25:37;8.63;;;6.20;;
3704;SDS011;1868;48.918;9.438;2022-09-01T00:28:05;10.10;;;7.40;;
3704;SDS011;1868;48.918;9.438;2022-09-01T00:30:35;8.93;;;7.13;;
3704;SDS011;1868;48.918;9.438;2022-09-01T00:33:04;8.30;;;7.50;;
3704;SDS011;1868;48.918;9.438;2022-09-01T00:35:33;11.90;;;7.03;;
3704;SDS011;1868;48.918;9.438;2022-09-01T00:38:02;6.80;;;6.13;;
3704;SDS011;1868;48.918;9.438;2022-09-01T00:40:31;11.97;;;7.70;;
3704;SDS011;1868;48.918;9.438;2022-09-01T00:42:59;7.53;;;6.73;;
3704;SDS011;1868;48.918;9.438;2022-09-01T00:45:28;8.17;;;7.17;;
3704;SDS011;1868;48.918;9.438;2022-09-01T00:47:57;10.00;;;6.97;;
3704;SDS011;1868;48.918;9.438;2022-09-01T00:50:26;7.37;;;6.60;;
3704;SDS011;1868;48.918;9.438;2022-09-01T00:52:54;8.80;;;6.80;;
3704;SDS011;1868;48.918;9.438;2022-09-01T00:55:24;7.63;;;6.83;;
3704;SDS011;1868;48.918;9.438;2022-09-01T00:57:58;7.10;;;6.40;;
3704;SDS011;1868;48.918;9.438;2022-09-01T01:00:28;7.97;;;6.93;;
3704;SDS011;1868;48.918;9.438;2022-09-01T01:03:00;8.87;;;8.00;;
3704;SDS011;1868;48.918;9.438;2022-09-01T01:05:30;9.47;;;7.80;;
3704;SDS011;1868;48.918;9.438;2022-09-01T01:08:05;8.30;;;7.53;;
3704;SDS011;1868;48.918;9.438;2022-09-01T01:10:38;8.40;;;6.87;;
3704;SDS011;1868;48.918;9.438;2022-09-01T01:13:08;7.60;;;6.87;;
3704;SDS011;1868;48.918;9.438;2022-09-01T01:15:42;10.07;;;8.13;;
3704;SDS011;1868;48.918;9.438;2022-09-01T01:18:13;9.77;;;7.60;;
3704;SDS011;1868;48.918;9.438;2022-09-01T01:20:54;16.73;;;7.67;;
3704;SDS011;1868;48.918;9.438;2022-09-01T01:23:47;8.50;;;7.53;;
3704;SDS011;1868;48.918;9.438;2022-09-01T01:26:23;8.70;;;7.40;;
3704;SDS011;1868;48.918;9.438;2022-09-01T01:28:52;7.53;;;6.70;;
3704;SDS011;1868;48.918;9.438;2022-09-01T01:31:21;7.60;;;6.80;;
3704;SDS011;1868;48.918;9.438;2022-09-01T01:33:52;8.00;;;7.20;;
3704;SDS011;1868;48.918;9.438;2022-09-01T01:36:24;8.60;;;6.93;;
3704;SDS011;1868;48.918;9.438;2022-09-01T01:39:00;7.67;;;6.93;;
3704;SDS011;1868;48.918;9.438;2022-09-01T01:41:35;7.80;;;7.00;;
3704;SDS011;1868;48.918;9.438;2022-09-01T01:44:11;9.53;;;7.90;;
3704;SDS011;1868;48.918;9.438;2022-09-01T01:46:42;7.33;;;6.63;;
3704;SDS011;1868;48.918;9.438;2022-09-01T01:49:13;9.10;;;8.13;;
3704;SDS011;1868;48.918;9.438;2022-09-01T01:51:46;8.63;;;7.73;;
3704;SDS011;1868;48.918;9.438;2022-09-01T01:54:24;9.53;;;8.00;;
3704;SDS011;1868;48.918;9.438;2022-09-01T01:56:59;8.67;;;7.17;;
3704;SDS011;1868;48.918;9.438;2022-09-01T01:59:31;8.10;;;7.30;;
3704;SDS011;1868;48.918;9.438;2022-09-01T02:01:59;8.97;;;7.20;;
3704;SDS011;1868;48.918;9.438;2022-09-01T02:04:34;8.03;;;6.80;;
3704;SDS011;1868;48.918;9.438;2022-09-01T02:07:08;7.70;;;6.80;;
3704;SDS011;1868;48.918;9.438;2022-09-01T02:09:39;10.43;;;7.70;;
3704;SDS011;1868;48.918;9.438;2022-09-01T02:12:15;9.17;;;8.13;;
3704;SDS011;1868;48.918;9.438;2022-09-01T02:14:44;7.80;;;7.10;;
3704;SDS011;1868;48.918;9.438;2022-09-01T02:17:13;8.00;;;7.20;;
3704;SDS011;1868;48.918;9.438;2022-09-01T02:19:42;7.67;;;6.70;;
3704;SDS011;1868;48.918;9.438;2022-09-01T02:22:12;8.37;;;7.27;;
3704;SDS011;1868;48.918;9.438;2022-09-01T02:24:40;8.97;;;8.07;;
3704;SDS011;1868;48.918;9.438;2022-09-01T02:27:14;10.40;;;9.37;;
3704;SDS011;1868;48.918;9.438;2022-09-01T02:29:52;11.60;;;10.07;;
3704;SDS011;1868;48.918;9.438;2022-09-01T02:32:21;13.20;;;10.63;;
3704;SDS011;1868;48.918;9.438;2022-09-01T02:34:49;15.17;;;10.73;;
3704;SDS011;1868;48.918;9.438;2022-09-01T02:37:22;14.33;;;11.20;;
3704;SDS011;1868;48.918;9.438;2022-09-01T02:39:50;13.63;;;10.90;;
3704;SDS011;1868;48.918;9.438;2022-09-01T02:42:23;13.60;;;12.13;;
3704;SDS011;1868;48.918;9.438;2022-09-01T02:44:53;14.07;;;12.57;;
3704;SDS011;1868;48.918;9.438;2022-09-01T02:47:22;16.13;;;12.73;;
3704;SDS011;1868;48.918;9.438;2022-09-01T02:49:51;14.03;;;12.60;;
3704;SDS011;1868;48.918;9.438;2022-09-01T02:52:19;15.00;;;13.50;;
3704;SDS011;1868;48.918;9.438;2022-09-01T02:54:48;16.50;;;12.83;;
3704;SDS011;1868;48.918;9.438;2022-09-01T02:57:16;21.80;;;13.80;;
3704;SDS011;1868;48.918;9.438;2022-09-01T02:59:45;14.77;;;13.20;;
3704;SDS011;1868;48.918;9.438;2022-09-01T03:02:14;15.70;;;12.07;;
3704;SDS011;1868;48.918;9.438;2022-09-01T03:04:42;16.00;;;12.77;;
3704;SDS011;1868;48.918;9.438;2022-09-01T03:07:10;14.60;;;13.00;;
3704;SDS011;1868;48.918;9.438;2022-09-01T03:09:39;12.90;;;11.00;;
3704;SDS011;1868;48.918;9.438;2022-09-01T03:12:08;14.20;;;12.27;;
3704;SDS011;1868;48.918;9.438;2022-09-01T03:14:36;14.50;;;12.67;;
3704;SDS011;1868;48.918;9.438;2022-09-01T03:17:06;11.70;;;10.50;;
3704;SDS011;1868;48.918;9.438;2022-09-01T03:19:34;12.73;;;11.43;;
3704;SDS011;1868;48.918;9.438;2022-09-01T03:22:10;15.57;;;11.47;;
3704;SDS011;1868;48.918;9.438;2022-09-01T03:24:39;11.17;;;9.97;;
3704;SDS011;1868;48.918;9.438;2022-09-01T03:27:07;12.33;;;10.90;;
3704;SDS011;1868;48.918;9.438;2022-09-01T03:29:37;12.47;;;10.60;;
3704;SDS011;1868;48.918;9.438;2022-09-01T03:32:07;16.33;;;13.43;;
3704;SDS011;1868;48.918;9.438;2022-09-01T03:34:35;15.30;;;11.07;;
3704;SDS011;1868;48.918;9.438;2022-09-01T03:37:04;19.03;;;14.13;;
3704;SDS011;1868;48.918;9.438;2022-09-01T03:39:33;17.90;;;15.83;;
3704;SDS011;1868;48.918;9.438;2022-09-01T03:42:02;17.50;;;14.50;;
3704;SDS011;1868;48.918;9.438;2022-09-01T03:44:33;14.37;;;11.77;;
3704;SDS011;1868;48.918;9.438;2022-09-01T03:47:05;17.27;;;12.20;;
3704;SDS011;1868;48.918;9.438;2022-09-01T03:49:40;12.37;;;11.03;;
3704;SDS011;1868;48.918;9.438;2022-09-01T03:52:10;12.60;;;11.23;;
3704;SDS011;1868;48.918;9.438;2022-09-01T03:54:38;16.40;;;13.70;;
3704;SDS011;1868;48.918;9.438;2022-09-01T03:57:07;24.23;;;17.43;;
3704;SDS011;1868;48.918;9.438;2022-09-01T03:59:35;18.17;;;15.57;;
3704;SDS011;1868;48.918;9.438;2022-09-01T04:02:12;17.30;;;14.10;;
3704;SDS011;1868;48.918;9.438;2022-09-01T04:04:41;16.20;;;14.17;;
3704;SDS011;1868;48.918;9.438;2022-09-01T04:07:10;17.27;;;14.73;;
3704;SDS011;1868;48.918;9.438;2022-09-01T04:09:44;17.60;;;15.70;;
3704;SDS011;1868;48.918;9.438;2022-09-01T04:12:13;19.00;;;15.57;;
3704;SDS011;1868;48.918;9.438;2022-09-01T04:14:46;20.60;;;16.43;;
3704;SDS011;1868;48.918;9.438;2022-09-01T04:17:15;20.03;;;15.03;;
3704;SDS011;1868;48.918;9.438;2022-09-01T04:20:02;14.10;;;10.80;;
3704;SDS011;1868;48.918;9.438;2022-09-01T04:22:34;77.47;;;58.50;;
3704;SDS011;1868;48.918;9.438;2022-09-01T04:25:03;24.40;;;19.57;;
3704;SDS011;1868;48.918;9.438;2022-09-01T04:27:34;19.23;;;13.17;;
3704;SDS011;1868;48.918;9.438;2022-09-01T04:30:06;16.30;;;13.87;;
3704;SDS011;1868;48.918;9.438;2022-09-01T04:32:42;15.27;;;13.67;;
3704;SDS011;1868;48.918;9.438;2022-09-01T04:35:12;14.73;;;13.07;;
3704;SDS011;1868;48.918;9.438;2022-09-01T04:37:43;17.33;;;14.00;;
3704;SDS011;1868;48.918;9.438;2022-09-01T04:40:11;16.10;;;13.20;;
3704;SDS011;1868;48.918;9.438;2022-09-01T04:42:41;17.93;;;14.47;;
3704;SDS011;1868;48.918;9.438;2022-09-01T04:45:10;14.77;;;13.10;;
3704;SDS011;1868;48.918;9.438;2022-09-01T04:47:46;16.37;;;14.20;;
3704;SDS011;1868;48.918;9.438;2022-09-01T04:50:16;16.50;;;13.80;;
3704;SDS011;1868;48.918;9.438;2022-09-01T04:53:06;17.77;;;12.67;;
3704;SDS011;1868;48.918;9.438;2022-09-01T04:55:40;18.60;;;16.13;;
3704;SDS011;1868;48.918;9.438;2022-09-01T04:58:10;18.53;;;15.13;;
3704;SDS011;1868;48.918;9.438;2022-09-01T05:00:43;20.67;;;16.23;;
3704;SDS011;1868;48.918;9.438;2022-09-01T05:03:17;18.40;;;16.13;;
3704;SDS011;1868;48.918;9.438;2022-09-01T05:06:13;22.57;;;18.70;;
3704;SDS011;1868;48.918;9.438;2022-09-01T05:08:48;22.53;;;18.23;;
3704;SDS011;1868;48.918;9.438;2022-09-01T05:11:37;22.90;;;20.00;;
3704;SDS011;1868;48.918;9.438;2022-09-01T05:14:37;22.80;;;17.57;;
3704;SDS011;1868;48.918;9.438;2022-09-01T05:17:08;19.33;;;17.30;;
3704;SDS011;1868;48.918;9.438;2022-09-01T05:19:40;21.20;;;17.10;;
3704;SDS011;1868;48.918;9.438;2022-09-01T05:22:14;18.03;;;15.57;;
3704;SDS011;1868;48.918;9.438;2022-09-01T05:24:57;25.20;;;16.43;;
3704;SDS011;1868;48.918;9.438;2022-09-01T05:27:41;18.83;;;16.00;;
3704;SDS011;1868;48.918;9.438;2022-09-01T05:30:16;20.57;;;17.83;;
3704;SDS011;1868;48.918;9.438;2022-09-01T05:32:46;23.00;;;17.30;;
3704;SDS011;1868;48.918;9.438;2022-09-01T05:35:17;19.77;;;16.10;;
3704;SDS011;1868;48.918;9.438;2022-09-01T05:37:57;22.17;;;18.53;;
3704;SDS011;1868;48.918;9.438;2022-09-01T05:40:26;19.83;;;16.43;;
3704;SDS011;1868;48.918;9.438;2022-09-01T05:42:54;20.77;;;17.70;;
3704;SDS011;1868;48.918;9.438;2022-09-01T05:45:23;19.57;;;16.87;;
3704;SDS011;1868;48.918;9.438;2022-09-01T05:47:52;20.40;;;16.87;;
3704;SDS011;1868;48.918;9.438;2022-09-01T05:50:23;19.17;;;15.67;;
3704;SDS011;1868;48.918;9.438;2022-09-01T05:52:53;17.97;;;15.80;;
3704;SDS011;1868;48.918;9.438;2022-09-01T05:55:21;23.47;;;19.53;;
3704;SDS011;1868;48.918;9.438;2022-09-01T05:57:54;23.73;;;18.10;;
3704;SDS011;1868;48.918;9.438;2022-09-01T06:00:22;20.80;;;18.60;;
3704;SDS011;1868;48.918;9.438;2022-09-01T06:02:51;19.83;;;17.47;;
3704;SDS011;1868;48.918;9.438;2022-09-01T06:05:22;17.47;;;14.63;;
3704;SDS011;1868;48.918;9.438;2022-09-01T06:07:54;20.80;;;15.60;;
3704;SDS011;1868;48.918;9.438;2022-09-01T06:10:23;15.90;;;14.13;;
3704;SDS011;1868;48.918;9.438;2022-09-01T06:12:53;23.43;;;17.80;;
3704;SDS011;1868;48.918;9.438;2022-09-01T06:15:23;20.50;;;17.37;;
3704;SDS011;1868;48.918;9.438;2022-09-01T06:17:55;20.80;;;18.27;;
3704;SDS011;1868;48.918;9.438;2022-09-01T06:20:25;19.83;;;17.00;;
3704;SDS011;1868;48.918;9.438;2022-09-01T06:22:55;25.97;;;21.70;;
3704;SDS011;1868;48.918;9.438;2022-09-01T06:25:23;22.83;;;19.30;;
3704;SDS011;1868;48.918;9.438;2022-09-01T06:27:56;23.77;;;20.17;;
3704;SDS011;1868;48.918;9.438;2022-09-01T06:30:26;23.57;;;19.47;;
3704;SDS011;1868;48.918;9.438;2022-09-01T06:33:02;21.20;;;17.40;;
3704;SDS011;1868;48.918;9.438;2022-09-01T06:35:36;18.50;;;15.73;;
3704;SDS011;1868;48.918;9.438;2022-09-01T06:38:05;19.50;;;17.47;;
3704;SDS011;1868;48.918;9.438;2022-09-01T06:40:38;17.13;;;15.00;;
3704;SDS011;1868;48.918;9.438;2022-09-01T06:43:10;17.73;;;15.83;;
3704;SDS011;1868;48.918;9.438;2022-09-01T06:45:46;11.93;;;10.73;;
3704;SDS011;1868;48.918;9.438;2022-09-01T06:48:21;15.47;;;13.13;;
3704;SDS011;1868;48.918;9.438;2022-09-01T06:50:59;15.03;;;13.40;;
3704;SDS011;1868;48.918;9.438;2022-09-01T06:53:51;19.30;;;14.47;;
3704;SDS011;1868;48.918;9.438;2022-09-01T06:56:28;14.27;;;12.67;;
3704;SDS011;1868;48.918;9.438;2022-09-01T06:59:06;13.67;;;11.90;;
3704;SDS011;1868;48.918;9.438;2022-09-01T07:01:36;14.90;;;11.63;;
3704;SDS011;1868;48.918;9.438;2022-09-01T07:04:05;12.80;;;11.50;;
3704;SDS011;1868;48.918;9.438;2022-09-01T07:06:42;14.70;;;13.20;;
3704;SDS011;1868;48.918;9.438;2022-09-01T07:09:51;11.87;;;10.67;;
3704;SDS011;1868;48.918;9.438;2022-09-01T07:12:45;11.80;;;10.00;;
3704;SDS011;1868;48.918;9.438;2022-09-01T07:15:36;11.50;;;9.30;;
3704;SDS011;1868;48.918;9.438;2022-09-01T07:18:27;9.77;;;8.77;;
3704;SDS011;1868;48.918;9.438;2022-09-01T07:20:57;12.33;;;10.40;;
3704;SDS011;1868;48.918;9.438;2022-09-01T07:23:49;13.53;;;8.20;;
3704;SDS011;1868;48.918;9.438;2022-09-01T07:26:39;11.90;;;10.53;;
3704;SDS011;1868;48.918;9.438;2022-09-01T07:29:13;10.60;;;9.40;;
3704;SDS011;1868;48.918;9.438;2022-09-01T07:31:43;11.37;;;10.17;;
3704;SDS011;1868;48.918;9.438;2022-09-01T07:34:16;11.63;;;10.50;;
3704;SDS011;1868;48.918;9.438;2022-09-01T07:37:07;9.53;;;8.40;;
3704;SDS011;1868;48.918;9.438;2022-09-01T07:39:58;13.10;;;11.03;;
3704;SDS011;1868;48.918;9.438;2022-09-01T07:43:06;9.40;;;8.50;;
3704;SDS011;1868;48.918;9.438;2022-09-01T07:45:53;12.23;;;8.87;;
3704;SDS011;1868;48.918;9.438;2022-09-01T07:48:26;8.27;;;7.50;;
3704;SDS011;1868;48.918;9.438;2022-09-01T07:51:17;7.67;;;6.97;;
3704;SDS011;1868;48.918;9.438;2022-09-01T07:54:05;7.60;;;6.90;;
3704;SDS011;1868;48.918;9.438;2022-09-01T07:56:35;7.73;;;7.13;;
3704;SDS011;1868;48.918;9.438;2022-09-01T07:59:08;6.50;;;6.00;;
3704;SDS011;1868;48.918;9.438;2022-09-01T08:01:48;6.10;;;5.60;;
3704;SDS011;1868;48.918;9.438;2022-09-01T08:04:18;7.83;;;6.10;;
3704;SDS011;1868;48.918;9.438;2022-09-01T08:06:48;5.90;;;5.40;;
3704;SDS011;1868;48.918;9.438;2022-09-01T08:09:17;5.57;;;5.07;;
3704;SDS011;1868;48.918;9.438;2022-09-01T08:12:05;4.97;;;4.57;;
3704;SDS011;1868;48.918;9.438;2022-09-01T08:14:38;5.70;;;5.20;;
3704;SDS011;1868;48.918;9.438;2022-09-01T08:17:07;6.27;;;4.87;;
3704;SDS011;1868;48.918;9.438;2022-09-01T08:19:58;5.73;;;5.23;;
3704;SDS011;1868;48.918;9.438;2022-09-01T08:22:50;4.43;;;4.03;;
3704;SDS011;1868;48.918;9.438;2022-09-01T08:25:22;7.70;;;3.50;;
3704;SDS011;1868;48.918;9.438;2022-09-01T08:27:54;3.13;;;2.93;;
3704;SDS011;1868;48.918;9.438;2022-09-01T08:30:26;3.67;;;3.37;;
3704;SDS011;1868;48.918;9.438;2022-09-01T08:32:55;4.17;;;3.87;;
3704;SDS011;1868;48.918;9.438;2022-09-01T08:35:24;5.50;;;3.70;;
3704;SDS011;1868;48.918;9.438;2022-09-01T08:37:57;4.40;;;3.60;;
3704;SDS011;1868;48.918;9.438;2022-09-01T08:40:26;4.60;;;3.33;;
3704;SDS011;1868;48.918;9.438;2022-09-01T08:43:00;4.17;;;3.77;;
3704;SDS011;1868;48.918;9.438;2022-09-01T08:45:44;3.60;;;3.30;;
3704;SDS011;1868;48.918;9.438;2022-09-01T08:48:19;4.10;;;3.70;;
3704;SDS011;1868;48.918;9.438;2022-09-01T08:51:14;6.40;;;4.00;;
3704;SDS011;1868;48.918;9.438;2022-09-01T08:53:57;4.60;;;4.30;;
3704;SDS011;1868;48.918;9.438;2022-09-01T08:56:31;3.87;;;3.50;;
3704;SDS011;1868;48.918;9.438;2022-09-01T08:59:06;7.63;;;3.70;;
3704;SDS011;1868;48.918;9.438;2022-09-01T09:01:57;2.93;;;2.70;;
3704;SDS011;1868;48.918;9.438;2022-09-01T09:04:52;3.30;;;3.10;;
3704;SDS011;1868;48.918;9.438;2022-09-01T09:07:51;3.80;;;3.50;;
3704;SDS011;1868;48.918;9.438;2022-09-01T09:10:41;3.40;;;3.10;;
3704;SDS011;1868;48.918;9.438;2022-09-01T09:13:22;3.67;;;3.33;;
3704;SDS011;1868;48.918;9.438;2022-09-01T09:16:03;3.80;;;3.53;;
3704;SDS011;1868;48.918;9.438;2022-09-01T09:18:39;3.60;;;3.30;;
3704;SDS011;1868;48.918;9.438;2022-09-01T09:21:23;3.20;;;3.00;;
3704;SDS011;1868;48.918;9.438;2022-09-01T09:23:58;6.43;;;3.50;;
3704;SDS011;1868;48.918;9.438;2022-09-01T09:26:35;3.50;;;3.20;;
3704;SDS011;1868;48.918;9.438;2022-09-01T09:29:11;3.40;;;3.20;;
3704;SDS011;1868;48.918;9.438;2022-09-01T09:31:40;3.37;;;3.17;;
3704;SDS011;1868;48.918;9.438;2022-09-01T09:34:16;4.03;;;3.73;;
3704;SDS011;1868;48.918;9.438;2022-09-01T09:37:15;6.53;;;3.53;;
3704;SDS011;1868;48.918;9.438;2022-09-01T09:40:00;3.17;;;2.93;;
3704;SDS011;1868;48.918;9.438;2022-09-01T09:42:36;2.90;;;2.70;;
3704;SDS011;1868;48.918;9.438;2022-09-01T09:45:06;3.27;;;2.97;;
3704;SDS011;1868;48.918;9.438;2022-09-01T09:47:51;2.63;;;2.43;;
3704;SDS011;1868;48.918;9.438;2022-09-01T09:50:23;3.00;;;2.73;;
3704;SDS011;1868;48.918;9.438;2022-09-01T09:53:09;4.20;;;2.57;;
3704;SDS011;1868;48.918;9.438;2022-09-01T09:55:51;3.00;;;2.80;;
3704;SDS011;1868;48.918;9.438;2022-09-01T09:58:27;2.87;;;2.77;;
3704;SDS011;1868;48.918;9.438;2022-09-01T10:01:04;3.30;;;3.10;;
3704;SDS011;1868;48.918;9.438;2022-09-01T10:03:41;3.40;;;3.10;;
3704;SDS011;1868;48.918;9.438;2022-09-01T10:06:13;3.20;;;3.00;;
3704;SDS011;1868;48.918;9.438;2022-09-01T10:08:58;3.60;;;3.30;;
3704;SDS011;1868;48.918;9.438;2022-09-01T10:11:29;4.00;;;3.77;;
3704;SDS011;1868;48.918;9.438;2022-09-01T10:14:09;3.30;;;3.03;;
3704;SDS011;1868;48.918;9.438;2022-09-01T10:17:04;2.93;;;2.67;;
3704;SDS011;1868;48.918;9.438;2022-09-01T10:19:52;3.40;;;3.20;;
3704;SDS011;1868;48.918;9.438;2022-09-01T10:22:23;4.47;;;3.30;;
3704;SDS011;1868;48.918;9.438;2022-09-01T10:24:52;3.97;;;3.67;;
3704;SDS011;1868;48.918;9.438;2022-09-01T10:27:21;4.10;;;3.37;;
3704;SDS011;1868;48.918;9.438;2022-09-01T10:29:53;3.23;;;3.03;;
3704;SDS011;1868;48.918;9.438;2022-09-01T10:32:44;6.60;;;3.57;;
3704;SDS011;1868;48.918;9.438;2022-09-01T10:35:23;3.93;;;2.70;;
3704;SDS011;1868;48.918;9.438;2022-09-01T10:37:55;4.00;;;3.70;;
3704;SDS011;1868;48.918;9.438;2022-09-01T10:40:37;6.10;;;2.83;;
3704;SDS011;1868;48.918;9.438;2022-09-01T10:43:22;3.50;;;3.30;;
3704;SDS011;1868;48.918;9.438;2022-09-01T10:55:40;3.20;;;2.90;;
3704;SDS011;1868;48.918;9.438;2022-09-01T10:58:15;3.47;;;3.10;;
3704;SDS011;1868;48.918;9.438;2022-09-01T11:05:11;3.67;;;2.87;;
3704;SDS011;1868;48.918;9.438;2022-09-01T11:07:44;2.93;;;2.83;;
3704;SDS011;1868;48.918;9.438;2022-09-01T11:10:44;2.90;;;2.70;;
3704;SDS011;1868;48.918;9.438;2022-09-01T11:13:23;6.63;;;3.27;;
3704;SDS011;1868;48.918;9.438;2022-09-01T11:19:32;3.83;;;2.80;;
3704;SDS011;1868;48.918;9.438;2022-09-01T11:22:15;2.37;;;2.27;;
3704;SDS011;1868;48.918;9.438;2022-09-01T11:25:07;4.33;;;2.57;;
3704;SDS011;1868;48.918;9.438;2022-09-01T11:28:10;2.80;;;2.70;;
3704;SDS011;1868;48.918;9.438;2022-09-01T11:31:15;2.60;;;2.40;;
3704;SDS011;1868;48.918;9.438;2022-09-01T11:34:01;11.13;;;3.20;;
3704;SDS011;1868;48.918;9.438;2022-09-01T11:36:44;2.77;;;2.63;;
3704;SDS011;1868;48.918;9.438;2022-09-01T11:39:31;4.27;;;2.87;;
3704;SDS011;1868;48.918;9.438;2022-09-01T11:42:06;3.00;;;2.80;;
3704;SDS011;1868;48.918;9.438;2022-09-01T11:44:46;9.70;;;3.83;;
3704;SDS011;1868;48.918;9.438;2022-09-01T11:47:20;2.67;;;2.50;;
3704;SDS011;1868;48.918;9.438;2022-09-01T11:49:53;3.50;;;2.97;;
3704;SDS011;1868;48.918;9.438;2022-09-01T11:52:26;3.37;;;3.17;;
3704;SDS011;1868;48.918;9.438;2022-09-01T11:54:56;3.97;;;3.13;;
3704;SDS011;1868;48.918;9.438;2022-09-01T11:57:27;3.50;;;3.07;;
3704;SDS011;1868;48.918;9.438;2022-09-01T12:00:00;6.00;;;2.53;;
3704;SDS011;1868;48.918;9.438;2022-09-01T12:02:40;3.13;;;2.93;;
3704;SDS011;1868;48.918;9.438;2022-09-01T12:05:27;2.03;;;1.97;;
3704;SDS011;1868;48.918;9.438;2022-09-01T12:07:58;3.70;;;2.93;;
3704;SDS011;1868;48.918;9.438;2022-09-01T12:10:32;2.67;;;2.43;;
3704;SDS011;1868;48.918;9.438;2022-09-01T12:13:04;2.73;;;2.63;;
3704;SDS011;1868;48.918;9.438;2022-09-01T12:15:37;3.17;;;3.00;;
3704;SDS011;1868;48.918;9.438;2022-09-01T12:18:28;2.90;;;2.80;;
3704;SDS011;1868;48.918;9.438;2022-09-01T12:21:01;2.30;;;2.20;;
3704;SDS011;1868;48.918;9.438;2022-09-01T12:23:33;1.80;;;1.80;;
3704;SDS011;1868;48.918;9.438;2022-09-01T12:26:06;2.70;;;2.50;;
3704;SDS011;1868;48.918;9.438;2022-09-01T12:28:40;2.20;;;2.10;;
3704;SDS011;1868;48.918;9.438;2022-09-01T12:31:12;2.40;;;2.30;;
3704;SDS011;1868;48.918;9.438;2022-09-01T12:33:45;2.60;;;2.50;;
3704;SDS011;1868;48.918;9.438;2022-09-01T12:36:22;2.37;;;2.27;;
3704;SDS011;1868;48.918;9.438;2022-09-01T12:38:53;2.37;;;2.17;;
3704;SDS011;1868;48.918;9.438;2022-09-01T12:41:24;2.37;;;2.27;;
3704;SDS011;1868;48.918;9.438;2022-09-01T12:47:00;2.80;;;2.67;;
3704;SDS011;1868;48.918;9.438;2022-09-01T12:49:36;2.93;;;2.20;;
3704;SDS011;1868;48.918;9.438;2022-09-01T12:52:22;2.50;;;2.40;;
3704;SDS011;1868;48.918;9.438;2022-09-01T12:54:53;2.20;;;2.10;;
3704;SDS011;1868;48.918;9.438;2022-09-01T12:58:01;2.00;;;1.90;;
3704;SDS011;1868;48.918;9.438;2022-09-01T13:00:32;1.80;;;1.70;;
3704;SDS011;1868;48.918;9.438;2022-09-01T13:03:10;2.20;;;2.00;;
3704;SDS011;1868;48.918;9.438;2022-09-01T13:05:49;2.10;;;1.90;;
3704;SDS011;1868;48.918;9.438;2022-09-01T13:08:19;1.83;;;1.73;;
3704;SDS011;1868;48.918;9.438;2022-09-01T13:10:53;2.00;;;1.90;;
3704;SDS011;1868;48.918;9.438;2022-09-01T13:13:25;1.83;;;1.73;;
3704;SDS011;1868;48.918;9.438;2022-09-01T13:15:54;3.60;;;2.43;;
3704;SDS011;1868;48.918;9.438;2022-09-01T13:18:28;4.07;;;2.27;;
3704;SDS011;1868;48.918;9.438;2022-09-01T13:20:57;2.37;;;1.93;;
3704;SDS011;1868;48.918;9.438;2022-09-01T13:23:25;1.87;;;1.77;;
3704;SDS011;1868;48.918;9.438;2022-09-01T13:25:54;2.70;;;2.50;;
3704;SDS011;1868;48.918;9.438;2022-09-01T13:28:24;2.23;;;2.00;;
3704;SDS011;1868;48.918;9.438;2022-09-01T13:30:54;2.63;;;2.17;;
3704;SDS011;1868;48.918;9.438;2022-09-01T13:33:46;1.93;;;1.83;;
3704;SDS011;1868;48.918;9.438;2022-09-01T13:36:34;2.20;;;2.10;;
3704;SDS011;1868;48.918;9.438;2022-09-01T13:39:15;1.83;;;1.73;;
3704;SDS011;1868;48.918;9.438;2022-09-01T13:41:45;2.10;;;2.00;;
3704;SDS011;1868;48.918;9.438;2022-09-01T13:44:14;3.10;;;2.33;;
3704;SDS011;1868;48.918;9.438;2022-09-01T13:46:44;2.07;;;2.00;;
3704;SDS011;1868;48.918;9.438;2022-09-01T13:49:34;4.13;;;2.17;;
3704;SDS011;1868;48.918;9.438;2022-09-01T13:52:23;2.07;;;1.97;;
3704;SDS011;1868;48.918;9.438;2022-09-01T13:54:51;1.83;;;1.73;;
3704;SDS011;1868;48.918;9.438;2022-09-01T13:57:19;2.63;;;1.90;;
3704;SDS011;1868;48.918;9.438;2022-09-01T13:59:47;3.70;;;2.47;;
3704;SDS011;1868;48.918;9.438;2022-09-01T14:02:16;4.67;;;2.03;;
3704;SDS011;1868;48.918;9.438;2022-09-01T14:04:45;2.67;;;2.00;;
3704;SDS011;1868;48.918;9.438;2022-09-01T14:07:14;1.73;;;1.63;;
3704;SDS011;1868;48.918;9.438;2022-09-01T14:09:44;2.30;;;1.93;;
3704;SDS011;1868;48.918;9.438;2022-09-01T14:12:12;1.70;;;1.70;;
3704;SDS011;1868;48.918;9.438;2022-09-01T14:14:41;2.47;;;2.33;;
3704;SDS011;1868;48.918;9.438;2022-09-01T14:17:29;2.83;;;1.77;;
3704;SDS011;1868;48.918;9.438;2022-09-01T14:19:58;2.03;;;1.93;;
3704;SDS011;1868;48.918;9.438;2022-09-01T14:22:27;3.07;;;2.23;;
3704;SDS011;1868;48.918;9.438;2022-09-01T14:25:00;2.10;;;1.90;;
3704;SDS011;1868;48.918;9.438;2022-09-01T14:27:28;1.53;;;1.53;;
3704;SDS011;1868;48.918;9.438;2022-09-01T14:29:57;1.80;;;1.70;;
3704;SDS011;1868;48.918;9.438;2022-09-01T14:32:26;1.77;;;1.67;;
3704;SDS011;1868;48.918;9.438;2022-09-01T14:34:55;2.10;;;2.00;;
3704;SDS011;1868;48.918;9.438;2022-09-01T14:37:25;1.90;;;1.80;;
3704;SDS011;1868;48.918;9.438;2022-09-01T14:39:55;8.63;;;2.20;;
3704;SDS011;1868;48.918;9.438;2022-09-01T14:42:24;1.70;;;1.60;;
3704;SDS011;1868;48.918;9.438;2022-09-01T14:44:54;2.33;;;1.90;;
3704;SDS011;1868;48.918;9.438;2022-09-01T14:47:22;2.20;;;1.70;;
3704;SDS011;1868;48.918;9.438;2022-09-01T14:49:51;11.33;;;10.27;;
3704;SDS011;1868;48.918;9.438;2022-09-01T14:52:20;2.43;;;2.20;;
3704;SDS011;1868;48.918;9.438;2022-09-01T14:54:49;2.60;;;2.40;;
3704;SDS011;1868;48.918;9.438;2022-09-01T14:57:18;2.23;;;2.13;;
3704;SDS011;1868;48.918;9.438;2022-09-01T15:00:03;2.60;;;2.10;;
3704;SDS011;1868;48.918;9.438;2022-09-01T15:02:37;2.33;;;2.17;;
3704;SDS011;1868;48.918;9.438;2022-09-01T15:05:07;1.83;;;1.73;;
3704;SDS011;1868;48.918;9.438;2022-09-01T15:07:37;2.40;;;2.30;;
3704;SDS011;1868;48.918;9.438;2022-09-01T15:10:08;2.27;;;2.17;;
3704;SDS011;1868;48.918;9.438;2022-09-01T15:12:50;2.60;;;2.40;;
3704;SDS011;1868;48.918;9.438;2022-09-01T15:15:20;2.20;;;2.10;;
3704;SDS011;1868;48.918;9.438;2022-09-01T15:17:49;3.80;;;2.20;;
3704;SDS011;1868;48.918;9.438;2022-09-01T15:20:17;1.90;;;1.80;;
3704;SDS011;1868;48.918;9.438;2022-09-01T15:23:03;2.13;;;2.03;;
3704;SDS011;1868;48.918;9.438;2022-09-01T15:25:33;2.40;;;2.30;;
3704;SDS011;1868;48.918;9.438;2022-09-01T15:28:02;3.03;;;2.83;;
3704;SDS011;1868;48.918;9.438;2022-09-01T15:30:31;3.33;;;3.10;;
3704;SDS011;1868;48.918;9.438;2022-09-01T15:33:01;2.20;;;2.10;;
3704;SDS011;1868;48.918;9.438;2022-09-01T15:35:30;4.43;;;3.00;;
3704;SDS011;1868;48.918;9.438;2022-09-01T15:37:59;2.60;;;2.40;;
3704;SDS011;1868;48.918;9.438;2022-09-01T15:40:28;5.50;;;3.07;;
3704;SDS011;1868;48.918;9.438;2022-09-01T15:42:58;3.03;;;2.80;;
3704;SDS011;1868;48.918;9.438;2022-09-01T15:45:26;4.80;;;2.40;;
3704;SDS011;1868;48.918;9.438;2022-09-01T15:47:55;3.07;;;2.83;;
3704;SDS011;1868;48.918;9.438;2022-09-01T15:50:24;3.97;;;2.83;;
3704;SDS011;1868;48.918;9.438;2022-09-01T15:52:54;3.00;;;2.73;;
3704;SDS011;1868;48.918;9.438;2022-09-01T15:55:25;4.30;;;3.10;;
3704;SDS011;1868;48.918;9.438;2022-09-01T15:57:55;3.60;;;2.87;;
3704;SDS011;1868;48.918;9.438;2022-09-01T16:00:25;3.20;;;3.00;;
3704;SDS011;1868;48.918;9.438;2022-09-01T16:02:55;2.77;;;2.53;;
3704;SDS011;1868;48.918;9.438;2022-09-01T16:05:27;3.00;;;2.90;;
3704;SDS011;1868;48.918;9.438;2022-09-01T16:07:56;2.80;;;2.70;;
3704;SDS011;1868;48.918;9.438;2022-09-01T16:10:27;2.87;;;2.70;;